sensor_id;sensor_type;location;lat;lon;timestamp;pressure;altitude;pressure_sealevel;temperature
24639;BMP180;1641;51.306;12.384;2023-07-30T00:01:48;99533.00;;;19.60
24639;BMP180;1641;51.306;12.384;2023-07-30T00:04:13;99509.00;;;19.90
24639;BMP180;1641;51.306;12.384;2023-07-30T00:06:39;99525.00;;;19.90
24639;BMP180;1641;51.306;12.384;2023-07-30T00:09:04;99507.00;;;19.90
24639;BMP180;1641;51.306;12.384;2023-07-30T00:11:29;99519.00;;;19.90
24639;BMP180;1641;51.306;12.384;2023-07-30T00:13:55;99531.00;;;19.90
24639;BMP180;1641;51.306;12.384;2023-07-30T00:16:20;99537.00;;;19.70
24639;BMP180;1641;51.306;12.384;2023-07-30T00:18:45;99530.00;;;19.80
24639;BMP180;1641;51.306;12.384;2023-07-30T00:21:10;99522.00;;;19.70
24639;BMP180;1641;51.306;12.384;2023-07-30T00:23:36;99536.00;;;19.60
24639;BMP180;1641;51.306;12.384;2023-07-30T00:26:01;99526.00;;;19.40
24639;BMP180;1641;51.306;12.384;2023-07-30T00:28:26;99518.00;;;19.30
24639;BMP180;1641;51.306;12.384;2023-07-30T00:30:51;99531.00;;;19.20
24639;BMP180;1641;51.306;12.384;2023-07-30T00:33:17;99540.00;;;19.10
24639;BMP180;1641;51.306;12.384;2023-07-30T00:35:42;99539.00;;;19.10
24639;BMP180;1641;51.306;12.384;2023-07-30T00:38:07;99535.00;;;19.20
24639;BMP180;1641;51.306;12.384;2023-07-30T00:40:32;99536.00;;;19.10
24639;BMP180;1641;51.306;12.384;2023-07-30T00:42:58;99536.00;;;19.30
24639;BMP180;1641;51.306;12.384;2023-07-30T00:45:23;99537.00;;;19.50
24639;BMP180;1641;51.306;12.384;2023-07-30T00:47:48;99499.00;;;19.40
24639;BMP180;1641;51.306;12.384;2023-07-30T00:50:15;99522.00;;;19.20
24639;BMP180;1641;51.306;12.384;2023-07-30T00:52:42;99522.00;;;19.30
24639;BMP180;1641;51.306;12.384;2023-07-30T00:55:09;99511.00;;;19.70
24639;BMP180;1641;51.306;12.384;2023-07-30T00:57:36;99522.00;;;19.90
24639;BMP180;1641;51.306;12.384;2023-07-30T01:00:01;99521.00;;;19.70
24639;BMP180;1641;51.306;12.384;2023-07-30T01:02:29;99517.00;;;19.90
24639;BMP180;1641;51.306;12.384;2023-07-30T01:04:56;99513.00;;;19.80
24639;BMP180;1641;51.306;12.384;2023-07-30T01:07:21;99513.00;;;19.80
24639;BMP180;1641;51.306;12.384;2023-07-30T01:09:47;99517.00;;;19.80
24639;BMP180;1641;51.306;12.384;2023-07-30T01:12:13;99515.00;;;19.70
24639;BMP180;1641;51.306;12.384;2023-07-30T01:14:39;99516.00;;;19.80
24639;BMP180;1641;51.306;12.384;2023-07-30T01:17:04;99528.00;;;19.50
24639;BMP180;1641;51.306;12.384;2023-07-30T01:19:30;99522.00;;;19.40
24639;BMP180;1641;51.306;12.384;2023-07-30T01:21:55;99529.00;;;19.40
24639;BMP180;1641;51.306;12.384;2023-07-30T01:24:21;99530.00;;;19.70
24639;BMP180;1641;51.306;12.384;2023-07-30T01:26:53;99535.00;;;19.60
24639;BMP180;1641;51.306;12.384;2023-07-30T01:29:22;99530.00;;;19.40
24639;BMP180;1641;51.306;12.384;2023-07-30T01:31:55;99534.00;;;19.50
24639;BMP180;1641;51.306;12.384;2023-07-30T01:34:25;99528.00;;;19.40
24639;BMP180;1641;51.306;12.384;2023-07-30T01:36:53;99527.00;;;19.30
24639;BMP180;1641;51.306;12.384;2023-07-30T01:39:19;99519.00;;;19.40
24639;BMP180;1641;51.306;12.384;2023-07-30T01:41:44;99536.00;;;19.60
24639;BMP180;1641;51.306;12.384;2023-07-30T01:44:10;99546.00;;;19.50
24639;BMP180;1641;51.306;12.384;2023-07-30T01:46:35;99542.00;;;19.40
24639;BMP180;1641;51.306;12.384;2023-07-30T01:49:00;99553.00;;;19.40
24639;BMP180;1641;51.306;12.384;2023-07-30T01:51:25;99542.00;;;19.40
24639;BMP180;1641;51.306;12.384;2023-07-30T01:53:51;99525.00;;;19.40
24639;BMP180;1641;51.306;12.384;2023-07-30T01:56:16;99532.00;;;19.30
24639;BMP180;1641;51.306;12.384;2023-07-30T01:58:41;99531.00;;;19.30
24639;BMP180;1641;51.306;12.384;2023-07-30T02:01:06;99526.00;;;19.20
24639;BMP180;1641;51.306;12.384;2023-07-30T02:03:32;99526.00;;;19.30
24639;BMP180;1641;51.306;12.384;2023-07-30T02:05:57;99528.00;;;19.30
24639;BMP180;1641;51.306;12.384;2023-07-30T02:08:22;99533.00;;;19.10
24639;BMP180;1641;51.306;12.384;2023-07-30T02:10:57;99530.00;;;19.40
24639;BMP180;1641;51.306;12.384;2023-07-30T02:13:23;99531.00;;;19.50
24639;BMP180;1641;51.306;12.384;2023-07-30T02:15:49;99515.00;;;19.60
24639;BMP180;1641;51.306;12.384;2023-07-30T02:18:14;99523.00;;;19.70
24639;BMP180;1641;51.306;12.384;2023-07-30T02:20:39;99521.00;;;19.70
24639;BMP180;1641;51.306;12.384;2023-07-30T02:23:05;99516.00;;;19.80
24639;BMP180;1641;51.306;12.384;2023-07-30T02:25:30;99520.00;;;19.90
24639;BMP180;1641;51.306;12.384;2023-07-30T02:27:56;99526.00;;;20.10
24639;BMP180;1641;51.306;12.384;2023-07-30T02:30:22;99524.00;;;20.20
24639;BMP180;1641;51.306;12.384;2023-07-30T02:32:47;99521.00;;;20.00
24639;BMP180;1641;51.306;12.384;2023-07-30T02:35:12;99486.00;;;19.80
24639;BMP180;1641;51.306;12.384;2023-07-30T02:37:37;99523.00;;;20.10
24639;BMP180;1641;51.306;12.384;2023-07-30T02:40:03;99523.00;;;19.90
24639;BMP180;1641;51.306;12.384;2023-07-30T02:42:30;99524.00;;;20.00
24639;BMP180;1641;51.306;12.384;2023-07-30T02:44:55;99523.00;;;20.10
24639;BMP180;1641;51.306;12.384;2023-07-30T02:47:21;99519.00;;;20.20
24639;BMP180;1641;51.306;12.384;2023-07-30T02:49:46;99517.00;;;20.10
24639;BMP180;1641;51.306;12.384;2023-07-30T02:52:11;99519.00;;;20.00
24639;BMP180;1641;51.306;12.384;2023-07-30T02:54:36;99520.00;;;19.80
24639;BMP180;1641;51.306;12.384;2023-07-30T02:57:02;99530.00;;;19.70
24639;BMP180;1641;51.306;12.384;2023-07-30T02:59:27;99528.00;;;19.70
24639;BMP180;1641;51.306;12.384;2023-07-30T03:01:52;99527.00;;;19.90
24639;BMP180;1641;51.306;12.384;2023-07-30T03:04:18;99534.00;;;19.90
24639;BMP180;1641;51.306;12.384;2023-07-30T03:06:43;99535.00;;;20.00
24639;BMP180;1641;51.306;12.384;2023-07-30T03:09:08;99535.00;;;20.00
24639;BMP180;1641;51.306;12.384;2023-07-30T03:11:33;99535.00;;;19.90
24639;BMP180;1641;51.306;12.384;2023-07-30T03:13:59;99532.00;;;20.20
24639;BMP180;1641;51.306;12.384;2023-07-30T03:16:25;99530.00;;;20.40
24639;BMP180;1641;51.306;12.384;2023-07-30T03:18:50;99528.00;;;20.40
24639;BMP180;1641;51.306;12.384;2023-07-30T03:21:15;99535.00;;;20.40
24639;BMP180;1641;51.306;12.384;2023-07-30T03:23:40;99540.00;;;20.10
24639;BMP180;1641;51.306;12.384;2023-07-30T03:26:07;99532.00;;;20.40
24639;BMP180;1641;51.306;12.384;2023-07-30T03:28:33;99534.00;;;20.30
24639;BMP180;1641;51.306;12.384;2023-07-30T03:30:58;99540.00;;;20.10
24639;BMP180;1641;51.306;12.384;2023-07-30T03:33:23;99541.00;;;20.20
24639;BMP180;1641;51.306;12.384;2023-07-30T03:35:48;99548.00;;;20.10
24639;BMP180;1641;51.306;12.384;2023-07-30T03:38:14;99551.00;;;20.10
24639;BMP180;1641;51.306;12.384;2023-07-30T03:40:39;99551.00;;;20.00
24639;BMP180;1641;51.306;12.384;2023-07-30T03:43:04;99547.00;;;20.30
24639;BMP180;1641;51.306;12.384;2023-07-30T03:45:30;99554.00;;;20.30
24639;BMP180;1641;51.306;12.384;2023-07-30T03:47:55;99544.00;;;20.40
24639;BMP180;1641;51.306;12.384;2023-07-30T03:50:20;99557.00;;;20.20
24639;BMP180;1641;51.306;12.384;2023-07-30T03:52:45;99553.00;;;20.30
24639;BMP180;1641;51.306;12.384;2023-07-30T03:55:12;99554.00;;;20.30
24639;BMP180;1641;51.306;12.384;2023-07-30T03:57:37;99552.00;;;20.10
24639;BMP180;1641;51.306;12.384;2023-07-30T04:00:03;99562.00;;;19.90
24639;BMP180;1641;51.306;12.384;2023-07-30T04:02:29;99560.00;;;20.10
24639;BMP180;1641;51.306;12.384;2023-07-30T04:04:54;99549.00;;;20.40
24639;BMP180;1641;51.306;12.384;2023-07-30T04:07:20;99543.00;;;20.40
24639;BMP180;1641;51.306;12.384;2023-07-30T04:09:45;99557.00;;;20.40
24639;BMP180;1641;51.306;12.384;2023-07-30T04:12:10;99544.00;;;20.70
24639;BMP180;1641;51.306;12.384;2023-07-30T04:14:35;99549.00;;;20.60
24639;BMP180;1641;51.306;12.384;2023-07-30T04:17:00;99556.00;;;20.70
24639;BMP180;1641;51.306;12.384;2023-07-30T04:19:26;99564.00;;;20.60
24639;BMP180;1641;51.306;12.384;2023-07-30T04:21:51;99562.00;;;20.50
24639;BMP180;1641;51.306;12.384;2023-07-30T04:24:16;99565.00;;;20.40
24639;BMP180;1641;51.306;12.384;2023-07-30T04:26:42;99586.00;;;20.30
24639;BMP180;1641;51.306;12.384;2023-07-30T04:29:07;99573.00;;;20.70
24639;BMP180;1641;51.306;12.384;2023-07-30T04:31:32;99583.00;;;20.70
24639;BMP180;1641;51.306;12.384;2023-07-30T04:33:58;99591.00;;;20.50
24639;BMP180;1641;51.306;12.384;2023-07-30T04:36:23;99589.00;;;20.60
24639;BMP180;1641;51.306;12.384;2023-07-30T04:38:52;99591.00;;;20.70
24639;BMP180;1641;51.306;12.384;2023-07-30T04:41:17;99588.00;;;20.80
24639;BMP180;1641;51.306;12.384;2023-07-30T04:43:43;99592.00;;;20.70
24639;BMP180;1641;51.306;12.384;2023-07-30T04:46:15;99597.00;;;20.40
24639;BMP180;1641;51.306;12.384;2023-07-30T04:48:40;99606.00;;;20.40
24639;BMP180;1641;51.306;12.384;2023-07-30T04:51:06;99600.00;;;20.80
24639;BMP180;1641;51.306;12.384;2023-07-30T04:53:31;99599.00;;;21.00
24639;BMP180;1641;51.306;12.384;2023-07-30T04:55:56;99604.00;;;20.80
24639;BMP180;1641;51.306;12.384;2023-07-30T04:58:22;99599.00;;;21.00
24639;BMP180;1641;51.306;12.384;2023-07-30T05:00:48;99614.00;;;21.20
24639;BMP180;1641;51.306;12.384;2023-07-30T05:03:14;99607.00;;;21.40
24639;BMP180;1641;51.306;12.384;2023-07-30T05:05:39;99608.00;;;21.50
24639;BMP180;1641;51.306;12.384;2023-07-30T05:08:07;99621.00;;;21.30
24639;BMP180;1641;51.306;12.384;2023-07-30T05:10:33;99606.00;;;21.50
24639;BMP180;1641;51.306;12.384;2023-07-30T05:13:01;99607.00;;;21.30
24639;BMP180;1641;51.306;12.384;2023-07-30T05:15:26;99612.00;;;21.40
24639;BMP180;1641;51.306;12.384;2023-07-30T05:17:52;99608.00;;;21.30
24639;BMP180;1641;51.306;12.384;2023-07-30T05:20:17;99623.00;;;21.30
24639;BMP180;1641;51.306;12.384;2023-07-30T05:22:42;99606.00;;;21.50
24639;BMP180;1641;51.306;12.384;2023-07-30T05:25:08;99600.00;;;21.70
24639;BMP180;1641;51.306;12.384;2023-07-30T05:27:35;99614.00;;;21.80
24639;BMP180;1641;51.306;12.384;2023-07-30T05:30:00;99616.00;;;21.90
24639;BMP180;1641;51.306;12.384;2023-07-30T05:32:26;99618.00;;;21.80
24639;BMP180;1641;51.306;12.384;2023-07-30T05:34:51;99616.00;;;21.80
24639;BMP180;1641;51.306;12.384;2023-07-30T05:37:16;99631.00;;;21.80
24639;BMP180;1641;51.306;12.384;2023-07-30T05:39:42;99569.00;;;21.80
24639;BMP180;1641;51.306;12.384;2023-07-30T05:42:10;99632.00;;;21.90
24639;BMP180;1641;51.306;12.384;2023-07-30T05:44:38;99607.00;;;22.10
24639;BMP180;1641;51.306;12.384;2023-07-30T05:47:04;99615.00;;;22.40
24639;BMP180;1641;51.306;12.384;2023-07-30T05:49:30;99627.00;;;22.40
24639;BMP180;1641;51.306;12.384;2023-07-30T05:51:55;99627.00;;;22.30
24639;BMP180;1641;51.306;12.384;2023-07-30T05:54:20;99637.00;;;22.10
24639;BMP180;1641;51.306;12.384;2023-07-30T05:56:45;99631.00;;;22.80
24639;BMP180;1641;51.306;12.384;2023-07-30T05:59:14;99639.00;;;23.20
24639;BMP180;1641;51.306;12.384;2023-07-30T06:01:39;99631.00;;;22.40
24639;BMP180;1641;51.306;12.384;2023-07-30T06:04:04;99645.00;;;22.30
24639;BMP180;1641;51.306;12.384;2023-07-30T06:06:33;99640.00;;;22.30
24639;BMP180;1641;51.306;12.384;2023-07-30T06:09:01;99635.00;;;22.50
24639;BMP180;1641;51.306;12.384;2023-07-30T06:11:27;99646.00;;;22.80
24639;BMP180;1641;51.306;12.384;2023-07-30T06:13:53;99653.00;;;23.00
24639;BMP180;1641;51.306;12.384;2023-07-30T06:16:18;99655.00;;;23.10
24639;BMP180;1641;51.306;12.384;2023-07-30T06:18:45;99650.00;;;23.30
24639;BMP180;1641;51.306;12.384;2023-07-30T06:21:19;99643.00;;;23.00
24639;BMP180;1641;51.306;12.384;2023-07-30T06:23:44;99655.00;;;22.70
24639;BMP180;1641;51.306;12.384;2023-07-30T06:26:09;99664.00;;;22.60
24639;BMP180;1641;51.306;12.384;2023-07-30T06:28:35;99656.00;;;22.50
24639;BMP180;1641;51.306;12.384;2023-07-30T06:31:01;99668.00;;;22.20
24639;BMP180;1641;51.306;12.384;2023-07-30T06:33:27;99669.00;;;22.60
24639;BMP180;1641;51.306;12.384;2023-07-30T06:35:52;99664.00;;;23.00
24639;BMP180;1641;51.306;12.384;2023-07-30T06:38:17;99660.00;;;23.80
24639;BMP180;1641;51.306;12.384;2023-07-30T06:40:43;99647.00;;;23.60
24639;BMP180;1641;51.306;12.384;2023-07-30T06:43:08;99656.00;;;23.20
24639;BMP180;1641;51.306;12.384;2023-07-30T06:45:33;99654.00;;;23.00
24639;BMP180;1641;51.306;12.384;2023-07-30T06:47:58;99647.00;;;23.70
24639;BMP180;1641;51.306;12.384;2023-07-30T06:50:24;99651.00;;;23.40
24639;BMP180;1641;51.306;12.384;2023-07-30T06:52:49;99652.00;;;23.40
24639;BMP180;1641;51.306;12.384;2023-07-30T06:55:14;99652.00;;;24.20
24639;BMP180;1641;51.306;12.384;2023-07-30T06:57:40;99650.00;;;25.00
24639;BMP180;1641;51.306;12.384;2023-07-30T07:00:09;99651.00;;;24.20
24639;BMP180;1641;51.306;12.384;2023-07-30T07:02:34;99654.00;;;24.20
24639;BMP180;1641;51.306;12.384;2023-07-30T07:05:03;99618.00;;;24.10
24639;BMP180;1641;51.306;12.384;2023-07-30T07:07:33;99652.00;;;24.30
24639;BMP180;1641;51.306;12.384;2023-07-30T07:10:10;99653.00;;;25.30
24639;BMP180;1641;51.306;12.384;2023-07-30T07:12:45;99627.00;;;26.90
24639;BMP180;1641;51.306;12.384;2023-07-30T07:15:10;99661.00;;;27.70
24639;BMP180;1641;51.306;12.384;2023-07-30T07:17:39;99653.00;;;26.30
24639;BMP180;1641;51.306;12.384;2023-07-30T07:20:14;99657.00;;;26.70
24639;BMP180;1641;51.306;12.384;2023-07-30T07:22:39;99661.00;;;27.60
24639;BMP180;1641;51.306;12.384;2023-07-30T07:25:24;99659.00;;;26.90
24639;BMP180;1641;51.306;12.384;2023-07-30T07:27:50;99660.00;;;25.80
24639;BMP180;1641;51.306;12.384;2023-07-30T07:30:24;99653.00;;;24.80
24639;BMP180;1641;51.306;12.384;2023-07-30T07:32:58;99661.00;;;25.40
24639;BMP180;1641;51.306;12.384;2023-07-30T07:35:24;99666.00;;;26.10
24639;BMP180;1641;51.306;12.384;2023-07-30T07:37:56;99670.00;;;25.60
24639;BMP180;1641;51.306;12.384;2023-07-30T07:40:24;99672.00;;;25.30
24639;BMP180;1641;51.306;12.384;2023-07-30T07:42:50;99660.00;;;24.90
24639;BMP180;1641;51.306;12.384;2023-07-30T07:45:15;99664.00;;;25.00
24639;BMP180;1641;51.306;12.384;2023-07-30T07:47:40;99662.00;;;25.50
24639;BMP180;1641;51.306;12.384;2023-07-30T07:50:11;99653.00;;;25.40
24639;BMP180;1641;51.306;12.384;2023-07-30T07:52:37;99665.00;;;25.40
24639;BMP180;1641;51.306;12.384;2023-07-30T07:55:03;99667.00;;;26.20
24639;BMP180;1641;51.306;12.384;2023-07-30T07:57:29;99669.00;;;26.70
24639;BMP180;1641;51.306;12.384;2023-07-30T07:59:58;99673.00;;;27.30
24639;BMP180;1641;51.306;12.384;2023-07-30T08:02:26;99669.00;;;27.50
24639;BMP180;1641;51.306;12.384;2023-07-30T08:04:51;99671.00;;;26.30
24639;BMP180;1641;51.306;12.384;2023-07-30T08:07:17;99663.00;;;26.40
24639;BMP180;1641;51.306;12.384;2023-07-30T08:09:42;99663.00;;;27.40
24639;BMP180;1641;51.306;12.384;2023-07-30T08:12:10;99646.00;;;28.50
24639;BMP180;1641;51.306;12.384;2023-07-30T08:14:37;99662.00;;;28.50
24639;BMP180;1641;51.306;12.384;2023-07-30T08:17:03;99659.00;;;27.70
24639;BMP180;1641;51.306;12.384;2023-07-30T08:19:45;99666.00;;;26.90
24639;BMP180;1641;51.306;12.384;2023-07-30T08:22:10;99670.00;;;26.00
24639;BMP180;1641;51.306;12.384;2023-07-30T08:24:35;99669.00;;;25.90
24639;BMP180;1641;51.306;12.384;2023-07-30T08:27:00;99670.00;;;26.00
24639;BMP180;1641;51.306;12.384;2023-07-30T08:29:26;99672.00;;;25.90
24639;BMP180;1641;51.306;12.384;2023-07-30T08:31:51;99651.00;;;25.70
24639;BMP180;1641;51.306;12.384;2023-07-30T08:34:22;99666.00;;;25.30
24639;BMP180;1641;51.306;12.384;2023-07-30T08:36:47;99677.00;;;25.40
24639;BMP180;1641;51.306;12.384;2023-07-30T08:39:13;99678.00;;;25.80
24639;BMP180;1641;51.306;12.384;2023-07-30T08:41:38;99682.00;;;27.70
24639;BMP180;1641;51.306;12.384;2023-07-30T08:44:04;99679.00;;;29.10
24639;BMP180;1641;51.306;12.384;2023-07-30T08:46:29;99684.00;;;30.00
24639;BMP180;1641;51.306;12.384;2023-07-30T08:49:01;99679.00;;;28.00
24639;BMP180;1641;51.306;12.384;2023-07-30T08:51:26;99682.00;;;27.60
24639;BMP180;1641;51.306;12.384;2023-07-30T08:53:52;99679.00;;;27.70
24639;BMP180;1641;51.306;12.384;2023-07-30T08:56:20;99681.00;;;26.90
24639;BMP180;1641;51.306;12.384;2023-07-30T08:58:47;99663.00;;;25.60
24639;BMP180;1641;51.306;12.384;2023-07-30T09:01:14;99661.00;;;27.10
24639;BMP180;1641;51.306;12.384;2023-07-30T09:03:41;99678.00;;;30.10
24639;BMP180;1641;51.306;12.384;2023-07-30T09:06:07;99677.00;;;30.60
24639;BMP180;1641;51.306;12.384;2023-07-30T09:08:32;99677.00;;;29.60
24639;BMP180;1641;51.306;12.384;2023-07-30T09:11:08;99681.00;;;29.40
24639;BMP180;1641;51.306;12.384;2023-07-30T09:13:41;99681.00;;;30.30
24639;BMP180;1641;51.306;12.384;2023-07-30T09:16:18;99670.00;;;30.80
24639;BMP180;1641;51.306;12.384;2023-07-30T09:18:45;99676.00;;;29.20
24639;BMP180;1641;51.306;12.384;2023-07-30T09:21:14;99679.00;;;28.20
24639;BMP180;1641;51.306;12.384;2023-07-30T09:23:44;99671.00;;;30.20
24639;BMP180;1641;51.306;12.384;2023-07-30T09:26:10;99683.00;;;28.30
24639;BMP180;1641;51.306;12.384;2023-07-30T09:28:41;99672.00;;;28.30
24639;BMP180;1641;51.306;12.384;2023-07-30T09:31:08;99683.00;;;30.10
24639;BMP180;1641;51.306;12.384;2023-07-30T09:33:34;99675.00;;;31.50
24639;BMP180;1641;51.306;12.384;2023-07-30T09:36:04;99671.00;;;30.80
24639;BMP180;1641;51.306;12.384;2023-07-30T09:38:29;99678.00;;;31.30
24639;BMP180;1641;51.306;12.384;2023-07-30T09:41:02;99685.00;;;31.00
24639;BMP180;1641;51.306;12.384;2023-07-30T09:43:34;99682.00;;;30.90
24639;BMP180;1641;51.306;12.384;2023-07-30T09:46:04;99655.00;;;32.00
24639;BMP180;1641;51.306;12.384;2023-07-30T09:48:55;99674.00;;;30.50
24639;BMP180;1641;51.306;12.384;2023-07-30T09:51:20;99666.00;;;30.00
24639;BMP180;1641;51.306;12.384;2023-07-30T09:53:49;99674.00;;;30.20
24639;BMP180;1641;51.306;12.384;2023-07-30T09:56:21;99647.00;;;30.40
24639;BMP180;1641;51.306;12.384;2023-07-30T09:58:52;99675.00;;;29.70
24639;BMP180;1641;51.306;12.384;2023-07-30T10:01:19;99680.00;;;29.90
24639;BMP180;1641;51.306;12.384;2023-07-30T10:03:49;99671.00;;;30.60
24639;BMP180;1641;51.306;12.384;2023-07-30T10:06:30;99673.00;;;30.40
24639;BMP180;1641;51.306;12.384;2023-07-30T10:08:58;99657.00;;;30.00
24639;BMP180;1641;51.306;12.384;2023-07-30T10:11:41;99660.00;;;29.50
24639;BMP180;1641;51.306;12.384;2023-07-30T10:14:07;99668.00;;;28.60
24639;BMP180;1641;51.306;12.384;2023-07-30T10:16:38;99673.00;;;28.10
24639;BMP180;1641;51.306;12.384;2023-07-30T10:19:04;99686.00;;;28.20
24639;BMP180;1641;51.306;12.384;2023-07-30T10:21:33;99672.00;;;28.20
24639;BMP180;1641;51.306;12.384;2023-07-30T10:24:00;99670.00;;;28.20
24639;BMP180;1641;51.306;12.384;2023-07-30T10:26:31;99674.00;;;28.40
24639;BMP180;1641;51.306;12.384;2023-07-30T10:29:12;99671.00;;;27.00
24639;BMP180;1641;51.306;12.384;2023-07-30T10:31:39;99670.00;;;27.20
24639;BMP180;1641;51.306;12.384;2023-07-30T10:34:07;99668.00;;;27.20
24639;BMP180;1641;51.306;12.384;2023-07-30T10:36:47;99655.00;;;27.60
24639;BMP180;1641;51.306;12.384;2023-07-30T10:39:17;99668.00;;;27.60
24639;BMP180;1641;51.306;12.384;2023-07-30T10:41:45;99666.00;;;27.60
24639;BMP180;1641;51.306;12.384;2023-07-30T10:44:18;99664.00;;;27.70
24639;BMP180;1641;51.306;12.384;2023-07-30T10:46:44;99648.00;;;27.70
24639;BMP180;1641;51.306;12.384;2023-07-30T10:49:10;99649.00;;;27.80
24639;BMP180;1641;51.306;12.384;2023-07-30T10:51:37;99662.00;;;27.20
24639;BMP180;1641;51.306;12.384;2023-07-30T10:54:09;99662.00;;;27.30
24639;BMP180;1641;51.306;12.384;2023-07-30T10:59:24;99647.00;;;27.90
24639;BMP180;1641;51.306;12.384;2023-07-30T11:01:49;99605.00;;;27.80
24639;BMP180;1641;51.306;12.384;2023-07-30T11:04:17;99641.00;;;27.20
24639;BMP180;1641;51.306;12.384;2023-07-30T11:06:50;99639.00;;;27.40
24639;BMP180;1641;51.306;12.384;2023-07-30T11:09:24;99639.00;;;27.20
24639;BMP180;1641;51.306;12.384;2023-07-30T11:11:50;99603.00;;;27.30
24639;BMP180;1641;51.306;12.384;2023-07-30T11:14:17;99637.00;;;27.40
24639;BMP180;1641;51.306;12.384;2023-07-30T11:16:59;99626.00;;;27.60
24639;BMP180;1641;51.306;12.384;2023-07-30T11:19:26;99634.00;;;27.30
24639;BMP180;1641;51.306;12.384;2023-07-30T11:21:53;99624.00;;;27.80
24639;BMP180;1641;51.306;12.384;2023-07-30T11:24:22;99620.00;;;27.70
24639;BMP180;1641;51.306;12.384;2023-07-30T11:26:59;99630.00;;;26.80
24639;BMP180;1641;51.306;12.384;2023-07-30T11:29:25;99617.00;;;27.00
24639;BMP180;1641;51.306;12.384;2023-07-30T11:31:50;99622.00;;;27.30
24639;BMP180;1641;51.306;12.384;2023-07-30T11:34:16;99616.00;;;27.00
24639;BMP180;1641;51.306;12.384;2023-07-30T11:36:43;99622.00;;;26.90
24639;BMP180;1641;51.306;12.384;2023-07-30T11:39:13;99609.00;;;27.20
24639;BMP180;1641;51.306;12.384;2023-07-30T11:41:39;99601.00;;;27.60
24639;BMP180;1641;51.306;12.384;2023-07-30T11:44:04;99617.00;;;27.80
24639;BMP180;1641;51.306;12.384;2023-07-30T11:46:30;99574.00;;;28.30
24639;BMP180;1641;51.306;12.384;2023-07-30T11:49:15;99606.00;;;28.60
24639;BMP180;1641;51.306;12.384;2023-07-30T11:51:42;99604.00;;;28.50
24639;BMP180;1641;51.306;12.384;2023-07-30T11:54:18;99605.00;;;28.40
24639;BMP180;1641;51.306;12.384;2023-07-30T11:56:44;99611.00;;;27.90
24639;BMP180;1641;51.306;12.384;2023-07-30T11:59:12;99608.00;;;28.10
24639;BMP180;1641;51.306;12.384;2023-07-30T12:01:37;99609.00;;;28.20
24639;BMP180;1641;51.306;12.384;2023-07-30T12:04:04;99601.00;;;28.60
24639;BMP180;1641;51.306;12.384;2023-07-30T12:06:43;99563.00;;;28.70
24639;BMP180;1641;51.306;12.384;2023-07-30T12:09:10;99606.00;;;28.30
24639;BMP180;1641;51.306;12.384;2023-07-30T12:11:45;99602.00;;;28.50
24639;BMP180;1641;51.306;12.384;2023-07-30T12:14:11;99614.00;;;29.20
24639;BMP180;1641;51.306;12.384;2023-07-30T12:16:36;99596.00;;;29.40
24639;BMP180;1641;51.306;12.384;2023-07-30T12:19:02;99592.00;;;29.10
24639;BMP180;1641;51.306;12.384;2023-07-30T12:21:27;99598.00;;;28.60
24639;BMP180;1641;51.306;12.384;2023-07-30T12:23:53;99592.00;;;28.60
24639;BMP180;1641;51.306;12.384;2023-07-30T12:26:20;99589.00;;;28.30
24639;BMP180;1641;51.306;12.384;2023-07-30T12:28:45;99581.00;;;28.20
24639;BMP180;1641;51.306;12.384;2023-07-30T12:31:11;99591.00;;;28.60
24639;BMP180;1641;51.306;12.384;2023-07-30T12:33:36;99574.00;;;28.70
24639;BMP180;1641;51.306;12.384;2023-07-30T12:36:01;99582.00;;;28.60
24639;BMP180;1641;51.306;12.384;2023-07-30T12:38:27;99588.00;;;28.10
24639;BMP180;1641;51.306;12.384;2023-07-30T12:40:55;99586.00;;;28.30
24639;BMP180;1641;51.306;12.384;2023-07-30T12:43:20;99584.00;;;28.10
24639;BMP180;1641;51.306;12.384;2023-07-30T12:45:52;99587.00;;;28.00
24639;BMP180;1641;51.306;12.384;2023-07-30T12:48:17;99586.00;;;27.10
24639;BMP180;1641;51.306;12.384;2023-07-30T12:50:42;99586.00;;;27.00
24639;BMP180;1641;51.306;12.384;2023-07-30T12:53:08;99595.00;;;26.90
24639;BMP180;1641;51.306;12.384;2023-07-30T12:55:33;99597.00;;;26.60
24639;BMP180;1641;51.306;12.384;2023-07-30T12:58:01;99605.00;;;26.20
24639;BMP180;1641;51.306;12.384;2023-07-30T13:00:37;99633.00;;;25.70
24639;BMP180;1641;51.306;12.384;2023-07-30T13:03:09;99649.00;;;24.80
24639;BMP180;1641;51.306;12.384;2023-07-30T13:05:52;99669.00;;;23.80
24639;BMP180;1641;51.306;12.384;2023-07-30T13:08:18;99665.00;;;22.50
24639;BMP180;1641;51.306;12.384;2023-07-30T13:10:43;99670.00;;;22.30
24639;BMP180;1641;51.306;12.384;2023-07-30T13:13:08;99647.00;;;22.40
24639;BMP180;1641;51.306;12.384;2023-07-30T13:15:39;99652.00;;;22.50
24639;BMP180;1641;51.306;12.384;2023-07-30T13:18:05;99662.00;;;22.70
24639;BMP180;1641;51.306;12.384;2023-07-30T13:20:30;99659.00;;;23.10
24639;BMP180;1641;51.306;12.384;2023-07-30T13:23:02;99651.00;;;23.30
24639;BMP180;1641;51.306;12.384;2023-07-30T13:25:27;99650.00;;;23.10
24639;BMP180;1641;51.306;12.384;2023-07-30T13:27:53;99655.00;;;23.20
24639;BMP180;1641;51.306;12.384;2023-07-30T13:30:20;99654.00;;;23.20
24639;BMP180;1641;51.306;12.384;2023-07-30T13:32:48;99658.00;;;23.00
24639;BMP180;1641;51.306;12.384;2023-07-30T13:35:20;99658.00;;;23.40
24639;BMP180;1641;51.306;12.384;2023-07-30T13:37:45;99648.00;;;23.50
24639;BMP180;1641;51.306;12.384;2023-07-30T13:40:14;99655.00;;;23.30
24639;BMP180;1641;51.306;12.384;2023-07-30T13:42:42;99653.00;;;23.40
24639;BMP180;1641;51.306;12.384;2023-07-30T13:45:07;99674.00;;;23.30
24639;BMP180;1641;51.306;12.384;2023-07-30T13:47:36;99674.00;;;23.10
24639;BMP180;1641;51.306;12.384;2023-07-30T13:50:01;99675.00;;;23.10
24639;BMP180;1641;51.306;12.384;2023-07-30T13:52:27;99676.00;;;22.90
24639;BMP180;1641;51.306;12.384;2023-07-30T13:54:52;99674.00;;;22.80
24639;BMP180;1641;51.306;12.384;2023-07-30T13:57:24;99678.00;;;23.00
24639;BMP180;1641;51.306;12.384;2023-07-30T13:59:53;99679.00;;;23.00
24639;BMP180;1641;51.306;12.384;2023-07-30T14:02:24;99674.00;;;23.20
24639;BMP180;1641;51.306;12.384;2023-07-30T14:04:49;99667.00;;;23.40
24639;BMP180;1641;51.306;12.384;2023-07-30T14:07:15;99672.00;;;23.60
24639;BMP180;1641;51.306;12.384;2023-07-30T14:09:40;99668.00;;;23.90
24639;BMP180;1641;51.306;12.384;2023-07-30T14:12:07;99671.00;;;23.90